Time;durP1;ratioP1;P1;durP2;ratioP2;P2;SDS_P1;SDS_P2;PMS_P1;PMS_P2;Temp;Humidity;BMP_temperature;BMP_pressure;BME280_temperature;BME280_humidity;BME280_pressure;Samples;Min_cycle;Max_cycle;Signal;HPM_P1;HPM_P2
2022/08/27 00:00:43;;;;;;;6.60;2.72;;;;;;;17.40;100.00;165117.00;4989980;28;20049;-62
2022/08/27 00:03:10;;;;;;;4.18;2.22;;;;;;;17.41;100.00;165119.72;4991299;28;20018;-63
2022/08/27 00:05:35;;;;;;;8.10;3.03;;;;;;;17.41;100.00;165121.03;4989935;28;20038;-63
2022/08/27 00:08:03;;;;;;;8.07;2.47;;;;;;;17.42;100.00;165122.44;4991806;28;20030;-63
2022/08/27 00:10:28;;;;;;;11.40;3.60;;;;;;;17.36;100.00;165107.50;4989533;28;20049;-63
2022/08/27 00:12:57;;;;;;;7.82;2.20;;;;;;;17.36;100.00;165107.50;4991601;28;20429;-63
2022/08/27 00:15:23;;;;;;;;;;;;;;;17.37;100.00;165110.22;4990739;28;20582;-63
2022/08/27 00:17:48;;;;;;;10.88;4.00;;;;;;;17.36;100.00;165107.50;4991000;28;20008;-62
2022/08/27 00:20:18;;;;;;;5.03;2.60;;;;;;;17.27;100.00;165084.50;4989973;28;20419;-63
2022/08/27 00:22:44;;;;;;;9.30;2.90;;;;;;;17.35;100.00;165104.78;4992994;28;20026;-63
2022/08/27 00:25:10;;;;;;;7.85;2.75;;;;;;;17.34;100.00;165102.06;4993739;28;20048;-62
2022/08/27 00:27:36;;;;;;;9.60;2.88;;;;;;;17.33;100.00;165099.34;4995435;28;20049;-63
2022/08/27 00:30:03;;;;;;;5.55;2.83;;;;;;;17.31;100.00;165093.97;4993679;28;20054;-62
2022/08/27 00:32:29;;;;;;;14.77;4.43;;;;;;;17.29;100.00;165088.53;4993842;28;20030;-63
2022/08/27 00:34:54;;;;;;;9.20;2.10;;;;;;;17.29;100.00;165088.53;4989716;28;20039;-63
2022/08/27 00:37:19;;;;;;;9.88;3.33;;;;;;;17.29;100.00;165088.53;4983916;28;20549;-63
2022/08/27 00:39:45;;;;;;;8.18;2.72;;;;;;;17.29;100.00;165089.88;4985883;28;20439;-63
2022/08/27 00:42:10;;;;;;;7.65;2.30;;;;;;;17.32;100.00;165096.63;4994985;28;20033;-63
2022/08/27 00:44:37;;;;;;;6.28;2.63;;;;;;;17.25;100.00;165077.66;4993431;28;20038;-64
2022/08/27 00:47:06;;;;;;;3.75;2.20;;;;;;;17.30;100.00;165091.25;4994782;28;20109;-64
2022/08/27 00:49:42;;;;;;;6.53;2.25;;;;;;;17.26;100.00;165080.38;4993250;28;20042;-64
2022/08/27 00:52:17;;;;;;;7.05;3.03;;;;;;;17.25;100.00;165077.66;4995017;28;20026;-63
2022/08/27 00:54:43;;;;;;;8.48;3.80;;;;;;;17.19;100.00;165062.81;4992728;28;20178;-64
2022/08/27 00:57:08;;;;;;;9.98;3.00;;;;;;;17.20;100.00;165065.47;4994508;28;20117;-63
2022/08/27 00:59:34;;;;;;;7.45;3.17;;;;;;;17.15;100.00;165050.59;4992942;28;20039;-64
2022/08/27 01:02:17;;;;;;;5.93;2.67;;;;;;;17.07;100.00;165031.63;4994428;28;20084;-63
2022/08/27 01:04:53;;;;;;;7.38;3.38;;;;;;;17.13;100.00;165046.50;4993002;28;20041;-63
2022/08/27 01:07:19;;;;;;;6.28;2.17;;;;;;;17.10;100.00;165038.41;4994715;28;20038;-64
2022/08/27 01:09:47;;;;;;;5.53;2.67;;;;;;;17.13;100.00;165047.88;4992449;28;20038;-64
2022/08/27 01:12:13;;;;;;;7.93;2.92;;;;;;;17.09;100.00;165037.00;4994441;28;20474;-63
2022/08/27 01:14:42;;;;;;;10.55;2.30;;;;;;;17.07;100.00;165031.63;4992854;28;20038;-64
2022/08/27 01:17:09;;;;;;;6.20;2.92;;;;;;;17.12;100.00;165045.16;4993976;28;20024;-66
2022/08/27 01:19:39;;;;;;;9.68;4.20;;;;;;;17.15;100.00;165050.59;4992902;28;20089;-66
2022/08/27 01:22:12;;;;;;;9.88;2.75;;;;;;;17.16;100.00;165053.31;4994672;28;20105;-66
2022/08/27 01:24:49;;;;;;;5.97;2.60;;;;;;;17.09;100.00;165037.00;4992356;28;20394;-66
2022/08/27 01:27:20;;;;;;;39.35;5.30;;;;;;;17.03;100.00;165020.75;4994454;28;20018;-66
2022/08/27 01:29:46;;;;;;;8.73;3.33;;;;;;;17.00;100.00;165012.66;4992211;28;20078;-66
2022/08/27 01:32:16;;;;;;;5.80;2.60;;;;;;;17.06;100.00;165028.91;4994397;28;20026;-66
2022/08/27 01:34:43;;;;;;;12.57;4.05;;;;;;;17.03;100.00;165020.75;4991482;28;20053;-66
2022/08/27 01:37:09;;;;;;;4.78;2.42;;;;;;;17.08;100.00;165034.34;4993716;28;20114;-66
2022/08/27 01:39:37;;;;;;;7.60;3.47;;;;;;;17.05;100.00;165026.19;4992348;28;20101;-66
2022/08/27 01:42:06;;;;;;;4.22;1.88;;;;;;;17.04;100.00;165022.16;4993894;28;20481;-66
2022/08/27 01:44:40;;;;;;;;;;;;;;;17.00;100.00;165012.66;4992748;28;20042;-66
2022/08/27 01:47:06;;;;;;;7.38;2.90;;;;;;;17.02;100.00;165016.72;4993621;28;20008;-66
2022/08/27 01:49:32;;;;;;;10.25;3.17;;;;;;;16.97;100.00;165004.50;4992382;28;20046;-66
2022/08/27 01:51:57;;;;;;;7.07;2.70;;;;;;;16.95;100.00;165000.47;4993522;28;20036;-66
2022/08/27 01:54:23;;;;;;;4.05;2.45;;;;;;;16.91;100.00;164988.22;4992330;28;20038;-66
2022/08/27 01:56:48;;;;;;;13.43;5.15;;;;;;;16.88;100.00;164980.06;4993594;28;20085;-66
2022/08/27 01:59:13;;;;;;;11.05;3.92;;;;;;;16.78;100.00;164955.72;4992251;28;20035;-66
2022/08/27 02:01:39;;;;;;;11.27;3.00;;;;;;;16.71;100.00;164936.75;4992956;28;20026;-64
2022/08/27 02:04:04;;;;;;;5.10;3.63;;;;;;;16.60;100.00;164906.91;4991835;28;20033;-64
2022/08/27 02:06:29;;;;;;;8.50;3.90;;;;;;;16.52;100.00;164885.22;4992161;28;20559;-64
2022/08/27 02:08:55;;;;;;;8.38;3.58;;;;;;;16.42;100.00;164860.84;4991604;28;20026;-64
2022/08/27 02:11:20;;;;;;;13.02;5.03;;;;;;;16.32;100.00;164835.13;4993527;28;20030;-64
2022/08/27 02:13:45;;;;;;;12.02;4.68;;;;;;;16.21;100.00;164805.34;4991572;28;20038;-65
2022/08/27 02:16:12;;;;;;;14.77;5.95;;;;;;;16.10;100.00;164775.53;4992880;28;20066;-64
2022/08/27 02:18:37;;;;;;;7.15;4.03;;;;;;;16.00;100.00;164749.81;4993075;28;20405;-64
2022/08/27 02:21:03;;;;;;;11.82;5.97;;;;;;;15.90;100.00;164722.75;4991858;28;20038;-64
2022/08/27 02:23:28;;;;;;;13.00;4.93;;;;;;;15.81;100.00;164699.66;4992346;28;20101;-64
2022/08/27 02:25:53;;;;;;;9.00;4.63;;;;;;;15.71;100.00;164673.94;4991774;28;20054;-64
2022/08/27 02:28:19;;;;;;;9.93;5.32;;;;;;;15.63;100.00;164653.66;4992972;28;20038;-61
2022/08/27 02:30:44;;;;;;;9.60;5.15;;;;;;;15.58;100.00;164638.75;4990531;28;20054;-61
2022/08/27 02:33:09;;;;;;;10.73;4.55;;;;;;;15.49;100.00;164617.06;4993197;28;20034;-62
2022/08/27 02:35:37;;;;;;;9.85;4.45;;;;;;;15.42;100.00;164598.13;4991414;28;20042;-62
2022/08/27 02:38:03;;;;;;;12.13;5.13;;;;;;;15.35;100.00;164580.50;4992674;28;20022;-62
2022/08/27 02:40:29;;;;;;;8.77;4.35;;;;;;;15.28;100.00;164560.22;4991121;28;20446;-62
2022/08/27 02:42:54;;;;;;;14.32;6.55;;;;;;;15.20;100.00;164541.28;4992851;28;20049;-62
2022/08/27 02:45:20;;;;;;;9.15;4.85;;;;;;;15.15;100.00;164526.38;4990741;28;20520;-62
2022/08/27 02:47:47;;;;;;;8.77;4.90;;;;;;;15.02;100.00;164493.91;4992737;28;20410;-61
2022/08/27 02:50:13;;;;;;;5.57;4.30;;;;;;;15.06;100.00;164503.38;4991167;28;20603;-62
2022/08/27 02:52:38;;;;;;;10.90;4.57;;;;;;;14.95;100.00;164473.56;4992169;28;20101;-62
2022/08/27 02:55:04;;;;;;;7.20;4.18;;;;;;;14.89;100.00;164460.06;4991214;28;20136;-62
2022/08/27 02:57:30;;;;;;;15.77;5.25;;;;;;;14.85;100.00;164449.25;4992481;28;20389;-61
2022/08/27 02:59:55;;;;;;;13.88;6.57;;;;;;;14.83;100.00;164442.44;4990490;28;20046;-61
2022/08/27 03:02:21;;;;;;;7.30;4.47;;;;;;;14.77;100.00;164427.59;4992482;28;20109;-62
2022/08/27 03:04:47;;;;;;;9.27;4.53;;;;;;;14.68;100.00;164403.22;4990845;28;20105;-62
2022/08/27 03:07:12;;;;;;;17.15;4.97;;;;;;;14.67;100.00;164400.50;4992058;28;20026;-62
2022/08/27 03:09:38;;;;;;;8.15;4.35;;;;;;;14.62;100.00;164386.94;4990640;28;20568;-62
2022/08/27 03:12:04;;;;;;;9.85;4.57;;;;;;;14.56;100.00;164372.06;4992126;28;20034;-62
2022/08/27 03:14:30;;;;;;;13.82;4.10;;;;;;;14.52;100.00;164361.25;4990192;28;20038;-64
2022/08/27 03:18:16;;;;;;;18.83;5.63;;;;;;;14.45;100.00;164343.66;4992383;28;20022;-64
2022/08/27 03:19:41;;;;;;;8.40;4.45;;;;;;;14.41;100.00;164332.78;4990507;28;20038;-64
2022/08/27 03:22:06;;;;;;;11.35;4.85;;;;;;;14.36;100.00;164319.28;4991865;28;20030;-64
2022/08/27 03:24:31;;;;;;;9.65;3.70;;;;;;;14.31;100.00;164305.75;4990428;28;20041;-64
2022/08/27 03:26:58;;;;;;;13.55;4.25;;;;;;;14.25;100.00;164290.88;4992130;28;20026;-64
2022/08/27 03:29:23;;;;;;;11.45;4.38;;;;;;;14.21;100.00;164281.41;4990139;28;20085;-64
2022/08/27 03:31:49;;;;;;;10.98;4.35;;;;;;;14.18;100.00;164271.94;4991739;28;20038;-63
2022/08/27 03:34:14;;;;;;;8.95;4.65;;;;;;;14.12;100.00;164257.03;4990777;28;20042;-64
2022/08/27 03:36:40;;;;;;;8.90;5.07;;;;;;;14.09;100.00;164250.28;4990885;28;20077;-63
2022/08/27 03:39:05;;;;;;;8.60;4.03;;;;;;;14.06;100.00;164242.19;4990469;28;20046;-63
2022/08/27 03:41:30;;;;;;;10.18;5.20;;;;;;;14.03;100.00;164232.72;4991687;28;20022;-64
2022/08/27 03:43:56;;;;;;;9.75;5.43;;;;;;;13.99;100.00;164221.88;4990260;28;20034;-64
2022/08/27 03:46:21;;;;;;;11.77;4.72;;;;;;;13.97;100.00;164217.84;4992141;28;20022;-62
2022/08/27 03:48:47;;;;;;;14.13;5.30;;;;;;;13.96;100.00;164216.47;4990000;28;20426;-62
2022/08/27 03:51:14;;;;;;;9.88;5.38;;;;;;;13.98;100.00;164220.56;4991331;28;20031;-62
2022/08/27 03:53:42;;;;;;;16.20;6.18;;;;;;;14.01;100.00;164227.31;4991680;28;20446;-62
2022/08/27 03:56:08;;;;;;;13.18;4.07;;;;;;;14.04;100.00;164235.38;4989992;28;20564;-62
2022/08/27 03:58:35;;;;;;;9.90;5.43;;;;;;;14.03;100.00;164232.72;4990668;28;20034;-62
2022/08/27 04:01:00;;;;;;;12.35;4.60;;;;;;;14.19;100.00;164275.97;4990094;28;20116;-62
2022/08/27 04:03:26;;;;;;;12.88;4.45;;;;;;;14.25;100.00;164290.88;4991430;28;20509;-62
2022/08/27 04:05:55;;;;;;;15.95;6.18;;;;;;;14.27;100.00;164296.28;4989582;28;20617;-63
2022/08/27 04:08:22;;;;;;;7.13;3.90;;;;;;;14.35;100.00;164316.56;4991787;28;20113;-62
2022/08/27 04:10:48;;;;;;;6.20;3.70;;;;;;;14.39;100.00;164328.75;4989814;28;20041;-63
2022/08/27 04:13:14;;;;;;;9.55;4.20;;;;;;;14.39;100.00;164328.75;4990897;28;20038;-62
2022/08/27 04:15:45;;;;;;;20.10;6.63;;;;;;;14.46;100.00;164344.97;4989918;28;20049;-60
2022/08/27 04:18:12;;;;;;;5.40;3.92;;;;;;;14.49;100.00;164353.13;4991564;28;20098;-60
2022/08/27 04:20:37;;;;;;;9.45;4.80;;;;;;;14.50;100.00;164357.16;4989424;28;20121;-60
2022/08/27 04:23:04;;;;;;;4.68;4.25;;;;;;;14.51;100.00;164358.53;4990831;28;20041;-60
2022/08/27 04:25:30;;;;;;;6.45;4.72;;;;;;;14.53;100.00;164365.28;4989388;28;20042;-60
2022/08/27 04:27:55;;;;;;;6.80;4.55;;;;;;;14.54;100.00;164368.00;4991293;28;20054;-60
2022/08/27 04:30:20;;;;;;;11.93;5.38;;;;;;;14.53;100.00;164365.28;4989888;28;20113;-60
2022/08/27 04:32:46;;;;;;;11.25;5.70;;;;;;;14.53;100.00;164365.28;4990888;28;20522;-60
2022/08/27 04:35:12;;;;;;;13.00;5.20;;;;;;;14.55;100.00;164370.72;4989714;28;20046;-60
2022/08/27 04:37:39;;;;;;;16.13;6.47;;;;;;;14.55;100.00;164370.72;4990952;28;20030;-61
2022/08/27 04:40:05;;;;;;;7.28;3.67;;;;;;;14.56;100.00;164372.06;4990076;28;20575;-61
2022/08/27 04:42:30;;;;;;;10.55;5.18;;;;;;;14.51;100.00;164358.53;4989894;28;20628;-64
2022/08/27 04:44:56;;;;;;;9.73;4.68;;;;;;;14.52;100.00;164361.25;4989097;28;20053;-65
2022/08/27 04:47:21;;;;;;;9.93;6.40;;;;;;;14.50;100.00;164357.16;4990149;28;20031;-65
2022/08/27 04:49:47;;;;;;;10.05;5.00;;;;;;;14.56;100.00;164373.38;4988731;28;20105;-65
2022/08/27 04:52:12;;;;;;;13.23;5.80;;;;;;;14.52;100.00;164362.59;4990917;28;20033;-65
2022/08/27 04:54:37;;;;;;;9.13;5.20;;;;;;;14.53;100.00;164365.28;4989536;28;20050;-65
2022/08/27 04:57:04;;;;;;;11.38;4.63;;;;;;;14.56;100.00;164372.06;4990928;28;20449;-65
2022/08/27 04:59:31;;;;;;;14.75;6.05;;;;;;;14.54;100.00;164368.00;4989300;28;20034;-65
2022/08/27 05:01:57;;;;;;;12.18;5.53;;;;;;;14.55;100.00;164370.72;4991494;28;20038;-65
2022/08/27 05:04:23;;;;;;;9.30;5.18;;;;;;;14.59;100.00;164381.53;4989422;28;20041;-65
2022/08/27 05:06:49;;;;;;;9.98;5.05;;;;;;;14.59;100.00;164381.53;4990824;28;20034;-65
2022/08/27 05:09:16;;;;;;;13.60;5.75;;;;;;;14.61;100.00;164385.56;4990862;28;20042;-65
2022/08/27 05:11:42;;;;;;;7.78;5.13;;;;;;;14.60;100.00;164384.25;4994187;28;20053;-65
2022/08/27 05:14:10;;;;;;;6.85;5.70;;;;;;;14.59;100.00;164381.53;4992831;28;20045;-65
2022/08/27 05:16:36;;;;;;;6.22;5.18;;;;;;;14.54;100.00;164368.00;4994268;28;20037;-66
2022/08/27 05:19:04;;;;;;;11.88;5.55;;;;;;;14.55;100.00;164370.72;4992888;28;20030;-66
2022/08/27 05:21:32;;;;;;;9.75;4.60;;;;;;;14.51;100.00;164359.88;4993946;28;20138;-66
2022/08/27 05:23:59;;;;;;;7.97;4.78;;;;;;;14.48;100.00;164351.78;4993045;28;20018;-64
2022/08/27 05:26:26;;;;;;;8.52;5.00;;;;;;;14.44;100.00;164340.94;4994594;28;20021;-64
2022/08/27 05:28:52;;;;;;;12.38;5.72;;;;;;;14.47;100.00;164349.06;4992426;28;20050;-64
2022/08/27 05:31:19;;;;;;;10.50;5.78;;;;;;;14.46;100.00;164346.34;4994242;28;20038;-64
2022/08/27 05:33:45;;;;;;;10.40;5.00;;;;;;;14.54;100.00;164366.63;4993991;28;20110;-65
2022/08/27 05:36:25;;;;;;;15.30;5.20;;;;;;;14.59;100.00;164381.53;4992926;28;20043;-64
2022/08/27 05:38:51;;;;;;;12.23;6.10;;;;;;;14.62;100.00;164386.94;4992694;28;20026;-64
2022/08/27 05:41:24;;;;;;;11.23;5.60;;;;;;;14.63;100.00;164389.66;4993870;28;20101;-59
2022/08/27 05:43:50;;;;;;;14.85;7.30;;;;;;;14.67;100.00;164400.50;4992322;28;20018;-59
2022/08/27 05:46:18;;;;;;;15.05;5.60;;;;;;;14.67;100.00;164401.84;4994098;28;20667;-58
2022/08/27 05:48:44;;;;;;;5.97;4.25;;;;;;;14.77;100.00;164427.59;4993499;28;20482;-59
2022/08/27 05:51:40;;;;;;;12.35;5.88;;;;;;;14.89;100.00;164460.06;4992202;28;20115;-58
2022/08/27 05:54:13;;;;;;;8.98;5.10;;;;;;;14.98;100.00;164481.72;4983743;28;20065;-59
2022/08/27 05:56:38;;;;;;;11.35;5.20;;;;;;;15.12;100.00;164519.59;4993370;28;20045;-58
2022/08/27 06:01:51;;;;;;;9.55;4.97;;;;;;;15.30;100.00;164566.97;4993728;28;20513;-59
2022/08/27 06:04:19;;;;;;;14.38;4.45;;;;;;;15.34;100.00;164576.47;4991890;28;20034;-58
2022/08/27 06:06:44;;;;;;;11.10;4.90;;;;;;;15.38;100.00;164587.25;4993512;28;20053;-59
2022/08/27 06:09:13;;;;;;;7.05;5.32;;;;;;;15.35;100.00;164579.16;4992069;28;20540;-58
2022/08/27 06:11:39;;;;;;;5.90;3.72;;;;;;;15.33;100.00;164573.75;4992948;28;20030;-59
2022/08/27 06:14:04;;;;;;;12.95;5.28;;;;;;;15.29;100.00;164562.94;4992253;28;20073;-59
2022/08/27 06:16:30;;;;;;;4.18;3.45;;;;;;;15.25;100.00;164552.09;4993159;28;20022;-58
2022/08/27 06:18:58;;;;;;;9.77;5.40;;;;;;;15.24;100.00;164550.75;4991549;28;20030;-59
2022/08/27 06:21:24;;;;;;;14.85;5.38;;;;;;;15.27;100.00;164557.50;4992840;28;20058;-58
2022/08/27 06:23:50;;;;;;;7.93;4.53;;;;;;;15.28;100.00;164560.22;4991871;28;20105;-59
2022/08/27 06:26:17;;;;;;;5.32;4.50;;;;;;;15.36;100.00;164581.88;4992877;28;20065;-59
2022/08/27 06:28:43;;;;;;;9.18;4.95;;;;;;;15.44;100.00;164603.56;4992989;28;20045;-59
2022/08/27 06:31:16;;;;;;;10.68;5.95;;;;;;;15.54;100.00;164630.59;4991430;28;20399;-58
2022/08/27 06:33:43;;;;;;;9.50;5.85;;;;;;;15.66;100.00;164660.41;4992332;28;20117;-58
2022/08/27 06:36:13;;;;;;;9.88;4.50;;;;;;;15.88;100.00;164717.31;4991602;28;20158;-58
2022/08/27 06:38:38;;;;;;;10.23;5.00;;;;;;;16.07;100.00;164767.44;4992889;28;20117;-58
2022/08/27 06:41:06;;;;;;;8.00;4.03;;;;;;;16.28;100.00;164822.91;4991064;28;20038;-59
2022/08/27 06:43:34;;;;;;;8.10;5.70;;;;;;;16.40;100.00;164855.47;4992662;28;20034;-60
2022/08/27 06:46:08;;;;;;;10.70;4.85;;;;;;;16.66;100.00;164923.16;4991441;28;20402;-60
2022/08/27 06:48:34;;;;;;;11.98;3.50;;;;;;;16.87;100.00;164977.34;4992312;28;20176;-60
2022/08/27 06:51:05;;;;;;;7.25;3.85;;;;;;;16.98;100.00;165007.22;4991323;28;20121;-60
2022/08/27 06:53:31;;;;;;;7.38;4.05;;;;;;;16.95;100.00;164999.06;4992419;28;20049;-60
2022/08/27 06:55:56;;;;;;;14.27;4.47;;;;;;;16.95;100.00;164999.06;4990707;28;20498;-60
2022/08/27 06:58:21;;;;;;;17.23;4.43;;;;;;;16.84;100.00;164969.25;4992393;28;20026;-60
2022/08/27 07:00:47;;;;;;;7.63;3.72;;;;;;;16.92;100.00;164992.31;4987541;28;20046;-60
2022/08/27 07:03:12;;;;;;;10.38;3.65;;;;;;;16.75;100.00;164947.56;5006831;28;20029;-60
2022/08/27 07:05:39;;;;;;;9.93;4.47;;;;;;;16.58;100.00;164901.47;5010443;28;20038;-60
2022/08/27 07:08:06;;;;;;;6.60;3.63;;;;;;;16.55;100.00;164894.72;4996826;28;20027;-60
2022/08/27 07:10:32;;;;;;;6.97;4.47;;;;;;;16.58;100.00;164901.47;4990210;28;20062;-60
2022/08/27 07:12:58;;;;;;;8.75;4.82;;;;;;;16.65;100.00;164920.44;4992331;28;20068;-59
2022/08/27 07:15:23;;;;;;;9.13;4.55;;;;;;;16.72;100.00;164939.41;4990902;28;20086;-60
2022/08/27 07:17:49;;;;;;;6.38;4.03;;;;;;;16.89;100.00;164982.78;4991439;28;20089;-60
2022/08/27 07:20:16;;;;;;;6.68;4.35;;;;;;;17.11;100.00;165042.44;4990567;28;20046;-60
2022/08/27 07:22:42;;;;;;;5.75;3.65;;;;;;;17.49;100.00;165140.03;4991983;28;20382;-60
2022/08/27 07:25:11;;;;;;;25.13;7.35;;;;;;;17.64;100.00;165180.69;4990419;28;20093;-61
2022/08/27 07:27:38;;;;;;;7.07;3.13;;;;;;;18.01;100.00;165278.34;4992154;28;20037;-61
2022/08/27 07:30:11;;;;;;;9.55;4.13;;;;;;;18.22;100.00;165332.56;4990383;28;20046;-60
2022/08/27 07:32:37;;;;;;;20.17;4.97;;;;;;;18.51;100.00;165408.47;4990893;28;20022;-60
2022/08/27 07:35:02;;;;;;;8.27;3.50;;;;;;;18.44;100.00;165389.50;4990561;28;20042;-60
2022/08/27 07:37:28;;;;;;;8.05;3.00;;;;;;;18.26;100.00;165343.44;4991485;28;20027;-60
2022/08/27 07:39:53;;;;;;;7.47;3.55;;;;;;;18.37;100.00;165371.91;4990158;28;20038;-60
2022/08/27 07:45:02;;;;;;;17.45;4.43;;;;;;;18.65;100.00;165446.44;4990442;28;20072;-59
2022/08/27 07:47:27;;;;;;;6.13;2.90;;;;;;;18.47;100.00;165397.66;4991134;28;20097;-60
2022/08/27 07:49:53;;;;;;;7.28;2.72;;;;;;;18.48;100.00;165400.38;4990026;28;20041;-60
2022/08/27 07:52:18;;;;;;;11.85;4.63;;;;;;;18.51;100.00;165409.88;4991980;28;20045;-60
2022/08/27 07:54:44;;;;;;;5.88;2.50;;;;;;;18.53;100.00;165413.91;4989912;28;20049;-60
2022/08/27 07:57:10;;;;;;;6.32;3.03;;;;;;;18.53;100.00;165415.31;4991554;28;20478;-60
2022/08/27 07:59:35;;;;;;;9.15;3.47;;;;;;;18.48;100.00;165400.38;4989889;28;20035;-61
2022/08/27 08:02:00;;;;;;;7.90;4.00;;;;;;;18.55;100.00;165419.34;4991416;28;20049;-60
2022/08/27 08:04:26;;;;;;;9.90;2.30;;;;;;;18.47;100.00;165397.66;4990204;28;20644;-60
2022/08/27 08:06:52;;;;;;;6.72;3.00;;;;;;;18.60;100.00;165431.56;4991738;28;20385;-60
2022/08/27 08:09:20;;;;;;;6.45;3.15;;;;;;;18.80;100.00;165484.47;4990041;28;20065;-60
2022/08/27 08:11:46;;;;;;;;;;;;;;;19.07;100.00;165555.03;4992092;28;20026;-60
2022/08/27 08:14:11;;;;;;;6.63;2.72;;;;;;;19.19;100.00;165587.56;4990206;28;20297;-60
2022/08/27 08:16:36;;;;;;;7.28;3.17;;;;;;;19.25;100.00;165602.50;4991051;28;20034;-60
2022/08/27 08:19:02;;;;;;;10.57;3.40;;;;;;;19.24;100.00;165601.16;4989763;28;20400;-60
2022/08/27 08:21:27;;;;;;;9.63;4.45;;;;;;;19.05;100.00;165549.59;4991381;28;20030;-61
2022/08/27 08:23:53;;;;;;;4.28;1.48;;;;;;;19.15;100.00;165576.75;4990203;28;20053;-60
2022/08/27 08:26:18;;;;;;;3.97;2.20;;;;;;;19.22;100.00;165595.72;4991132;28;20422;-60
2022/08/27 08:28:44;;;;;;;5.10;2.30;;;;;;;19.60;100.00;165694.75;4991327;28;20026;-60
2022/08/27 08:31:10;;;;;;;7.65;2.33;;;;;;;19.92;100.00;165780.28;4989846;28;20058;-60
2022/08/27 08:33:36;;;;;;;6.40;1.77;;;;;;;19.83;100.00;165755.84;4991044;28;20049;-60
2022/08/27 08:36:07;;;;;;;7.93;2.50;;;;;;;19.91;100.00;165777.63;4990025;28;20119;-60
2022/08/27 08:38:33;;;;;;;4.47;2.33;;;;;;;19.97;100.00;165792.50;4991172;28;20597;-61
2022/08/27 08:40:58;;;;;;;3.80;1.88;;;;;;;20.15;100.00;165840.00;4989644;28;20038;-60
2022/08/27 08:43:36;;;;;;;5.53;1.95;;;;;;;20.22;100.00;165859.00;4992574;28;20026;-60
2022/08/27 08:46:11;;;;;;;5.20;1.63;;;;;;;20.31;100.00;165880.72;4993725;28;20045;-60
2022/08/27 08:48:41;;;;;;;5.55;2.95;;;;;;;20.38;100.00;165899.72;4994757;28;20022;-60
2022/08/27 08:51:19;;;;;;;5.63;3.50;;;;;;;20.42;100.00;165910.63;4993420;28;20618;-60
2022/08/27 08:53:56;;;;;;;5.57;2.78;;;;;;;20.36;100.00;165894.34;4994543;28;20391;-60
2022/08/27 08:56:30;;;;;;;5.72;1.88;;;;;;;20.24;100.00;165864.44;4993659;28;20084;-60
2022/08/27 08:59:28;;;;;;;9.32;3.70;;;;;;;19.87;100.00;165766.72;4993275;28;20035;-60
2022/08/27 09:01:53;;;;;;;3.10;1.92;;;;;;;19.81;100.00;165750.41;4994128;28;20038;-60
2022/08/27 09:04:20;;;;;;;8.82;2.80;;;;;;;19.76;100.00;165736.84;4993325;28;20467;-58
2022/08/27 09:06:52;;;;;;;8.45;1.95;;;;;;;19.86;100.00;165762.66;4992214;28;20030;-59
2022/08/27 09:09:30;;;;;;;4.18;1.77;;;;;;;19.86;100.00;165764.00;4995556;28;20033;-61
2022/08/27 09:12:14;;;;;;;8.75;1.65;;;;;;;20.03;100.00;165807.44;5014523;28;20033;-61
2022/08/27 09:14:53;;;;;;;5.22;1.52;;;;;;;19.88;100.00;165769.44;5012148;28;20460;-61
2022/08/27 09:17:19;;;;;;;6.00;1.58;;;;;;;19.87;100.00;165765.38;5013707;28;20467;-61
2022/08/27 09:19:45;;;;;;;3.67;1.50;;;;;;;19.74;100.00;165731.41;5012463;28;20036;-61
2022/08/27 09:22:27;;;;;;;3.80;1.60;;;;;;;19.70;100.00;165720.53;5013868;28;20040;-62
2022/08/27 09:25:10;;;;;;;3.28;1.50;;;;;;;19.58;100.00;165689.34;5012292;28;20121;-61
2022/08/27 09:27:40;;;;;;;4.63;1.75;;;;;;;19.62;100.00;165701.53;5013582;28;20367;-61
2022/08/27 09:30:11;;;;;;;7.55;2.25;;;;;;;19.60;100.00;165696.13;5012562;28;20081;-61
2022/08/27 09:32:38;;;;;;;19.60;4.25;;;;;;;19.59;100.00;165693.41;5013157;28;20041;-61
2022/08/27 09:35:06;;;;;;;2.75;1.67;;;;;;;20.15;100.00;165838.66;5012259;28;20042;-61
2022/08/27 09:37:40;;;;;;;4.72;1.98;;;;;;;20.83;100.00;166019.25;5013728;28;20052;-61
2022/08/27 09:40:24;;;;;;;7.78;2.08;;;;;;;21.54;100.00;166205.28;5011921;28;20502;-61
2022/08/27 09:42:56;;;;;;;9.15;2.92;;;;;;;21.87;100.00;166293.63;5013374;28;20030;-61
2022/08/27 09:45:26;;;;;;;2.95;1.20;;;;;;;22.22;100.00;166383.31;5011809;28;20042;-61
2022/08/27 09:48:06;;;;;;;10.25;2.75;;;;;;;22.69;100.00;166508.34;5013083;28;20037;-61
2022/08/27 09:50:40;;;;;;;4.68;2.10;;;;;;;22.64;100.00;166494.78;5011966;28;20120;-61
2022/08/27 09:53:20;;;;;;;4.18;1.75;;;;;;;21.86;100.00;166289.56;5013253;28;20507;-61
2022/08/27 09:56:02;;;;;;;4.80;1.83;;;;;;;21.32;100.00;166148.25;5005725;28;20584;-61
2022/08/27 09:58:46;;;;;;;4.95;2.13;;;;;;;21.19;100.00;166112.94;4974015;28;20037;-62
2022/08/27 10:01:18;;;;;;;9.27;2.88;;;;;;;21.47;100.00;166187.66;4972416;28;20066;-62
2022/08/27 10:03:44;;;;;;;3.85;1.40;;;;;;;21.66;100.00;166236.59;4987492;28;20379;-61
2022/08/27 10:06:10;;;;;;;2.88;1.92;;;;;;;21.87;100.00;166293.63;4992291;28;20037;-62
2022/08/27 10:08:46;;;;;;;4.07;1.80;;;;;;;21.59;100.00;166217.56;4990923;28;20026;-61
2022/08/27 10:11:39;;;;;;;8.40;1.92;;;;;;;21.55;100.00;166209.41;4990489;28;20042;-62
2022/08/27 10:14:32;;;;;;;8.57;3.25;;;;;;;21.40;100.00;166168.66;4986668;28;20042;-62
2022/08/27 10:17:13;;;;;;;7.72;2.08;;;;;;;21.01;100.00;166065.44;4972278;28;20042;-61
2022/08/27 10:19:47;;;;;;;7.32;2.13;;;;;;;20.86;100.00;166027.41;4984407;28;20081;-61
2022/08/27 10:22:30;;;;;;;7.95;2.40;;;;;;;20.90;100.00;166038.25;4992774;28;20055;-61
2022/08/27 10:25:10;;;;;;;7.50;2.88;;;;;;;20.92;100.00;166043.69;4991597;28;20038;-61
2022/08/27 10:27:43;;;;;;;5.80;2.53;;;;;;;20.87;100.00;166030.13;4989309;28;20038;-61
2022/08/27 10:30:13;;;;;;;8.35;3.22;;;;;;;21.36;100.00;166157.75;4989810;28;20062;-62
2022/08/27 10:32:59;;;;;;;5.30;1.40;;;;;;;21.76;100.00;166263.78;4992786;28;20054;-61
2022/08/27 10:35:39;;;;;;;9.43;1.88;;;;;;;21.94;100.00;166309.94;4990372;28;20469;-61
2022/08/27 10:38:19;;;;;;;9.02;2.42;;;;;;;22.41;100.00;166433.66;4992707;28;20037;-62
2022/08/27 10:41:09;;;;;;;2.88;1.77;;;;;;;22.43;100.00;166440.44;4990649;28;20030;-61
2022/08/27 10:43:58;;;;;;;5.40;1.33;;;;;;;22.73;100.00;166519.25;4989972;28;20022;-61
2022/08/27 10:46:48;;;;;;;6.15;1.70;;;;;;;22.67;100.00;166502.97;4990793;28;20050;-61
2022/08/27 10:49:28;;;;;;;2.63;1.17;;;;;;;22.59;100.00;166481.22;4992792;28;20026;-62
2022/08/27 10:52:24;;;;;;;9.93;3.20;;;;;;;22.18;100.00;166375.16;4990547;28;20454;-61
2022/08/27 10:55:05;;;;;;;5.05;2.53;;;;;;;21.67;100.00;166240.66;4990469;28;20195;-61
2022/08/27 10:57:46;;;;;;;2.45;1.50;;;;;;;21.37;100.00;166160.47;4992308;28;20018;-63
2022/08/27 11:00:16;;;;;;;2.92;1.73;;;;;;;21.24;100.00;166127.91;4990761;28;20100;-61
2022/08/27 11:02:57;;;;;;;6.10;1.70;;;;;;;21.29;100.00;166138.75;4989725;28;20026;-62
2022/08/27 11:05:30;;;;;;;5.00;1.48;;;;;;;21.19;100.00;166114.28;4991985;28;20655;-62
2022/08/27 11:08:06;;;;;;;13.57;2.45;;;;;;;21.35;100.00;166156.41;4991700;28;20446;-62
2022/08/27 11:10:37;;;;;;;6.75;2.20;;;;;;;21.42;100.00;166172.72;4990544;28;20045;-61
2022/08/27 11:13:09;;;;;;;3.03;1.40;;;;;;;22.01;100.00;166330.31;4991492;28;20026;-61
2022/08/27 11:15:37;;;;;;;10.30;1.92;;;;;;;22.84;100.00;166547.81;4990461;28;20129;-61
2022/08/27 11:18:17;;;;;;;5.35;1.45;;;;;;;23.38;100.00;166690.56;4992308;28;20026;-61
2022/08/27 11:20:58;;;;;;;8.35;2.45;;;;;;;22.92;100.00;166568.16;4990780;28;20034;-62
2022/08/27 11:23:32;;;;;;;6.50;1.90;;;;;;;22.58;100.00;166478.47;4992148;28;20026;-62
2022/08/27 11:26:03;;;;;;;5.10;1.50;;;;;;;22.05;100.00;166339.84;4990073;28;20043;-62
2022/08/27 11:28:36;;;;;;;6.90;1.17;;;;;;;22.11;100.00;166356.13;4987147;28;20105;-62